Flight Information

DEPARTURE
CASPER, WY
Elevation:
5344
Runways:
8/26 - 8679x150 - ASPH-F
3/21 - 10165x150 - ASPH-G
ATIS:
126.15
Clearance Delivery:
121.9
Ground:
121.9
Tower:
CASPER TOWER 118.3
DESTINATION
,
Elevation:
TPA:
1000 (est.)


6118.6 NM79° True-13° Var65° HDG

Flight Plan:
(click to file on line)

1. Type
2. Aircraft Identification
3. Aircraft Type / Special Equipment
4. True Airspeed
kts
5. Departure Airport
(ICAO code)
6. Arriving Airport
(ICAO code)
7. Cruising Altitude
ft
8. Alternate Airport
(ICAO code)
9. Route of Flight
10. Remarks


00:00:00 Departure ATIS: Destination ATIS:

Clearance Limit:
Route:
Altitude: Expect in minutes
Frequency:
Transponder: (7500 Hijack / 7600 Lost Comms / 7700 Emergency)


KCPR 190053Z 02004KT 10SM OVC060 M05/M08 A3019 RMK AO2 SNB29E40 SLP272 P0000 T10501078
Time: 2021-01-19T00:53:00Z
1611018997
Winds: 20 @ 4 kts
Visibility: 10.0 sm
Clouds (AGL): OVC 6000
Temperature: -5.0 C
Dew Point: -7.8 C
Pressure: 30.188976 in Hgbr


Notes:

Data extracted from FAA Digital Chart Supplement. Effective: 0901Z Thursday, Dec 31, 2020 to 0901Z Thursday, Jan 28, 2021
Current ATIS data is provided courtisy of PilotEdge.